sensor_id;sensor_type;location;lat;lon;timestamp;P1;durP1;ratioP1;P2;durP2;ratioP2
9838;SDS011;4958;48.150;11.506;2024-02-04T00:00:00;2.83;;;2.50;;
9838;SDS011;4958;48.150;11.506;2024-02-04T00:02:29;3.40;;;2.93;;
9838;SDS011;4958;48.150;11.506;2024-02-04T00:04:58;2.73;;;2.53;;
9838;SDS011;4958;48.150;11.506;2024-02-04T00:07:25;2.80;;;2.60;;
9838;SDS011;4958;48.150;11.506;2024-02-04T00:09:51;3.10;;;2.80;;
9838;SDS011;4958;48.150;11.506;2024-02-04T00:12:18;2.87;;;2.67;;
9838;SDS011;4958;48.150;11.506;2024-02-04T00:14:47;3.07;;;2.87;;
9838;SDS011;4958;48.150;11.506;2024-02-04T00:17:19;2.93;;;2.40;;
9838;SDS011;4958;48.150;11.506;2024-02-04T00:19:46;3.37;;;3.07;;
9838;SDS011;4958;48.150;11.506;2024-02-04T00:22:15;3.20;;;2.90;;
9838;SDS011;4958;48.150;11.506;2024-02-04T00:24:43;3.10;;;2.80;;
9838;SDS011;4958;48.150;11.506;2024-02-04T00:27:10;2.53;;;2.33;;
9838;SDS011;4958;48.150;11.506;2024-02-04T00:29:35;3.30;;;3.00;;
9838;SDS011;4958;48.150;11.506;2024-02-04T00:32:01;2.97;;;2.63;;
9838;SDS011;4958;48.150;11.506;2024-02-04T00:34:30;3.73;;;2.90;;
9838;SDS011;4958;48.150;11.506;2024-02-04T00:37:01;2.93;;;2.73;;
9838;SDS011;4958;48.150;11.506;2024-02-04T00:39:27;3.10;;;2.90;;
9838;SDS011;4958;48.150;11.506;2024-02-04T00:41:56;3.00;;;2.80;;
9838;SDS011;4958;48.150;11.506;2024-02-04T00:44:23;3.20;;;2.90;;
9838;SDS011;4958;48.150;11.506;2024-02-04T00:46:49;3.20;;;2.90;;
9838;SDS011;4958;48.150;11.506;2024-02-04T00:49:16;3.20;;;3.00;;
9838;SDS011;4958;48.150;11.506;2024-02-04T00:51:42;3.00;;;2.80;;
9838;SDS011;4958;48.150;11.506;2024-02-04T00:54:10;3.00;;;2.80;;
9838;SDS011;4958;48.150;11.506;2024-02-04T00:56:36;3.83;;;3.37;;
9838;SDS011;4958;48.150;11.506;2024-02-04T00:59:03;3.63;;;3.33;;
9838;SDS011;4958;48.150;11.506;2024-02-04T01:01:29;4.27;;;3.70;;
9838;SDS011;4958;48.150;11.506;2024-02-04T01:03:56;5.07;;;3.90;;
9838;SDS011;4958;48.150;11.506;2024-02-04T01:06:22;3.90;;;3.60;;
9838;SDS011;4958;48.150;11.506;2024-02-04T01:08:48;4.57;;;4.17;;
9838;SDS011;4958;48.150;11.506;2024-02-04T01:11:16;4.73;;;4.33;;
9838;SDS011;4958;48.150;11.506;2024-02-04T01:13:43;4.67;;;4.27;;
9838;SDS011;4958;48.150;11.506;2024-02-04T01:16:09;4.20;;;3.90;;
9838;SDS011;4958;48.150;11.506;2024-02-04T01:18:35;4.17;;;3.80;;
9838;SDS011;4958;48.150;11.506;2024-02-04T01:21:02;4.60;;;4.20;;
9838;SDS011;4958;48.150;11.506;2024-02-04T01:23:29;4.00;;;3.70;;
9838;SDS011;4958;48.150;11.506;2024-02-04T01:25:55;4.73;;;4.23;;
9838;SDS011;4958;48.150;11.506;2024-02-04T01:28:23;3.97;;;3.67;;
9838;SDS011;4958;48.150;11.506;2024-02-04T01:30:49;4.23;;;3.83;;
9838;SDS011;4958;48.150;11.506;2024-02-04T01:33:15;4.03;;;3.73;;
9838;SDS011;4958;48.150;11.506;2024-02-04T01:35:42;3.60;;;3.30;;
9838;SDS011;4958;48.150;11.506;2024-02-04T01:38:08;4.10;;;3.80;;
9838;SDS011;4958;48.150;11.506;2024-02-04T01:40:35;4.00;;;3.70;;
9838;SDS011;4958;48.150;11.506;2024-02-04T01:43:01;4.63;;;3.50;;
9838;SDS011;4958;48.150;11.506;2024-02-04T01:45:29;4.00;;;3.70;;
9838;SDS011;4958;48.150;11.506;2024-02-04T01:47:56;4.10;;;3.70;;
9838;SDS011;4958;48.150;11.506;2024-02-04T01:50:22;3.80;;;3.50;;
9838;SDS011;4958;48.150;11.506;2024-02-04T01:52:49;3.73;;;3.43;;
9838;SDS011;4958;48.150;11.506;2024-02-04T01:55:18;4.13;;;3.73;;
9838;SDS011;4958;48.150;11.506;2024-02-04T01:57:44;4.00;;;3.70;;
9838;SDS011;4958;48.150;11.506;2024-02-04T02:00:13;4.10;;;3.70;;
9838;SDS011;4958;48.150;11.506;2024-02-04T02:02:41;4.00;;;3.60;;
9838;SDS011;4958;48.150;11.506;2024-02-04T02:05:08;4.00;;;3.60;;
9838;SDS011;4958;48.150;11.506;2024-02-04T02:07:34;3.90;;;3.60;;
9838;SDS011;4958;48.150;11.506;2024-02-04T02:10:01;3.70;;;3.40;;
9838;SDS011;4958;48.150;11.506;2024-02-04T02:12:31;3.70;;;3.40;;
9838;SDS011;4958;48.150;11.506;2024-02-04T02:15:03;3.60;;;3.30;;
9838;SDS011;4958;48.150;11.506;2024-02-04T02:17:38;3.97;;;3.50;;
9838;SDS011;4958;48.150;11.506;2024-02-04T02:20:15;4.23;;;3.93;;
9838;SDS011;4958;48.150;11.506;2024-02-04T02:22:48;3.33;;;3.13;;
9838;SDS011;4958;48.150;11.506;2024-02-04T02:25:17;4.07;;;3.70;;
9838;SDS011;4958;48.150;11.506;2024-02-04T02:27:46;3.73;;;3.43;;
9838;SDS011;4958;48.150;11.506;2024-02-04T02:30:13;4.07;;;3.73;;
9838;SDS011;4958;48.150;11.506;2024-02-04T02:32:40;3.30;;;3.00;;
9838;SDS011;4958;48.150;11.506;2024-02-04T02:35:07;3.73;;;3.43;;
9838;SDS011;4958;48.150;11.506;2024-02-04T02:37:36;3.73;;;3.43;;
9838;SDS011;4958;48.150;11.506;2024-02-04T02:40:07;3.70;;;3.40;;
9838;SDS011;4958;48.150;11.506;2024-02-04T02:42:38;3.53;;;3.23;;
9838;SDS011;4958;48.150;11.506;2024-02-04T02:45:08;3.20;;;2.93;;
9838;SDS011;4958;48.150;11.506;2024-02-04T02:47:37;3.43;;;3.13;;
9838;SDS011;4958;48.150;11.506;2024-02-04T02:50:05;3.47;;;3.17;;
9838;SDS011;4958;48.150;11.506;2024-02-04T02:52:32;3.50;;;3.20;;
9838;SDS011;4958;48.150;11.506;2024-02-04T02:54:58;3.27;;;2.97;;
9838;SDS011;4958;48.150;11.506;2024-02-04T02:57:25;4.07;;;3.67;;
9838;SDS011;4958;48.150;11.506;2024-02-04T02:59:52;3.70;;;3.40;;
9838;SDS011;4958;48.150;11.506;2024-02-04T03:02:19;3.43;;;3.07;;
9838;SDS011;4958;48.150;11.506;2024-02-04T03:04:45;3.40;;;3.10;;
9838;SDS011;4958;48.150;11.506;2024-02-04T03:07:12;3.70;;;3.40;;
9838;SDS011;4958;48.150;11.506;2024-02-04T03:09:38;3.20;;;2.90;;
9838;SDS011;4958;48.150;11.506;2024-02-04T03:12:05;3.43;;;2.87;;
9838;SDS011;4958;48.150;11.506;2024-02-04T03:14:32;3.43;;;2.73;;
9838;SDS011;4958;48.150;11.506;2024-02-04T03:16:59;2.80;;;2.57;;
9838;SDS011;4958;48.150;11.506;2024-02-04T03:19:26;3.17;;;2.80;;
9838;SDS011;4958;48.150;11.506;2024-02-04T03:21:52;3.33;;;2.93;;
9838;SDS011;4958;48.150;11.506;2024-02-04T03:24:18;2.97;;;2.67;;
9838;SDS011;4958;48.150;11.506;2024-02-04T03:26:45;3.10;;;2.80;;
9838;SDS011;4958;48.150;11.506;2024-02-04T03:29:11;2.97;;;2.67;;
9838;SDS011;4958;48.150;11.506;2024-02-04T03:31:38;2.80;;;2.60;;
9838;SDS011;4958;48.150;11.506;2024-02-04T03:34:05;3.23;;;2.90;;
9838;SDS011;4958;48.150;11.506;2024-02-04T03:36:32;3.23;;;2.97;;
9838;SDS011;4958;48.150;11.506;2024-02-04T03:38:58;3.10;;;2.80;;
9838;SDS011;4958;48.150;11.506;2024-02-04T03:41:25;3.07;;;2.70;;
9838;SDS011;4958;48.150;11.506;2024-02-04T03:43:51;3.20;;;2.90;;
9838;SDS011;4958;48.150;11.506;2024-02-04T03:46:17;3.03;;;2.80;;
9838;SDS011;4958;48.150;11.506;2024-02-04T03:48:44;3.00;;;2.70;;
9838;SDS011;4958;48.150;11.506;2024-02-04T03:51:16;3.30;;;3.00;;
9838;SDS011;4958;48.150;11.506;2024-02-04T03:53:42;2.87;;;2.67;;
9838;SDS011;4958;48.150;11.506;2024-02-04T03:56:09;2.93;;;2.70;;
9838;SDS011;4958;48.150;11.506;2024-02-04T03:58:35;2.53;;;2.33;;
9838;SDS011;4958;48.150;11.506;2024-02-04T04:01:02;2.50;;;2.30;;
9838;SDS011;4958;48.150;11.506;2024-02-04T04:03:28;2.67;;;2.47;;
9838;SDS011;4958;48.150;11.506;2024-02-04T04:05:55;2.77;;;2.57;;
9838;SDS011;4958;48.150;11.506;2024-02-04T04:08:23;3.37;;;2.40;;
9838;SDS011;4958;48.150;11.506;2024-02-04T04:10:49;2.30;;;2.10;;
9838;SDS011;4958;48.150;11.506;2024-02-04T04:13:15;2.50;;;2.30;;
9838;SDS011;4958;48.150;11.506;2024-02-04T04:15:42;2.70;;;2.50;;
9838;SDS011;4958;48.150;11.506;2024-02-04T04:18:08;2.70;;;2.50;;
9838;SDS011;4958;48.150;11.506;2024-02-04T04:20:36;2.83;;;2.63;;
9838;SDS011;4958;48.150;11.506;2024-02-04T04:23:03;2.63;;;2.43;;
9838;SDS011;4958;48.150;11.506;2024-02-04T04:25:31;2.57;;;2.37;;
9838;SDS011;4958;48.150;11.506;2024-02-04T04:27:58;2.70;;;2.50;;
9838;SDS011;4958;48.150;11.506;2024-02-04T04:30:24;2.33;;;2.13;;
9838;SDS011;4958;48.150;11.506;2024-02-04T04:32:51;3.07;;;2.40;;
9838;SDS011;4958;48.150;11.506;2024-02-04T04:35:17;2.50;;;2.30;;
9838;SDS011;4958;48.150;11.506;2024-02-04T04:37:44;2.50;;;2.17;;
9838;SDS011;4958;48.150;11.506;2024-02-04T04:40:10;2.20;;;2.00;;
9838;SDS011;4958;48.150;11.506;2024-02-04T04:42:39;2.40;;;2.20;;
9838;SDS011;4958;48.150;11.506;2024-02-04T04:45:06;2.37;;;2.07;;
9838;SDS011;4958;48.150;11.506;2024-02-04T04:47:33;2.33;;;2.13;;
9838;SDS011;4958;48.150;11.506;2024-02-04T04:50:00;2.30;;;2.10;;
9838;SDS011;4958;48.150;11.506;2024-02-04T04:52:27;2.63;;;1.90;;
9838;SDS011;4958;48.150;11.506;2024-02-04T04:54:54;2.10;;;1.93;;
9838;SDS011;4958;48.150;11.506;2024-02-04T04:57:20;2.77;;;1.90;;
9838;SDS011;4958;48.150;11.506;2024-02-04T04:59:48;2.30;;;2.10;;
9838;SDS011;4958;48.150;11.506;2024-02-04T05:02:15;2.97;;;1.90;;
9838;SDS011;4958;48.150;11.506;2024-02-04T05:04:42;3.33;;;1.93;;
9838;SDS011;4958;48.150;11.506;2024-02-04T05:07:09;1.80;;;1.70;;
9838;SDS011;4958;48.150;11.506;2024-02-04T05:09:35;2.13;;;1.90;;
9838;SDS011;4958;48.150;11.506;2024-02-04T05:12:02;1.83;;;1.70;;
9838;SDS011;4958;48.150;11.506;2024-02-04T05:14:28;1.90;;;1.70;;
9838;SDS011;4958;48.150;11.506;2024-02-04T05:16:56;2.07;;;1.87;;
9838;SDS011;4958;48.150;11.506;2024-02-04T05:19:22;2.17;;;1.80;;
9838;SDS011;4958;48.150;11.506;2024-02-04T05:21:49;1.80;;;1.70;;
9838;SDS011;4958;48.150;11.506;2024-02-04T05:24:15;2.20;;;2.00;;
9838;SDS011;4958;48.150;11.506;2024-02-04T05:26:42;2.17;;;1.63;;
9838;SDS011;4958;48.150;11.506;2024-02-04T05:29:08;2.73;;;2.00;;
9838;SDS011;4958;48.150;11.506;2024-02-04T05:31:39;1.90;;;1.70;;
9838;SDS011;4958;48.150;11.506;2024-02-04T05:34:08;2.20;;;2.00;;
9838;SDS011;4958;48.150;11.506;2024-02-04T05:36:34;4.47;;;2.13;;
9838;SDS011;4958;48.150;11.506;2024-02-04T05:39:08;2.63;;;2.00;;
9838;SDS011;4958;48.150;11.506;2024-02-04T05:41:35;3.50;;;2.10;;
9838;SDS011;4958;48.150;11.506;2024-02-04T05:44:01;4.40;;;2.20;;
9838;SDS011;4958;48.150;11.506;2024-02-04T05:46:28;4.07;;;2.33;;
9838;SDS011;4958;48.150;11.506;2024-02-04T05:48:54;2.93;;;2.50;;
9838;SDS011;4958;48.150;11.506;2024-02-04T05:51:22;4.60;;;2.47;;
9838;SDS011;4958;48.150;11.506;2024-02-04T05:53:49;2.83;;;2.47;;
9838;SDS011;4958;48.150;11.506;2024-02-04T05:56:15;2.80;;;2.50;;
9838;SDS011;4958;48.150;11.506;2024-02-04T05:58:41;5.10;;;2.30;;
9838;SDS011;4958;48.150;11.506;2024-02-04T06:01:08;5.67;;;2.60;;
9838;SDS011;4958;48.150;11.506;2024-02-04T06:03:34;3.30;;;2.50;;
9838;SDS011;4958;48.150;11.506;2024-02-04T06:06:01;2.97;;;2.43;;
9838;SDS011;4958;48.150;11.506;2024-02-04T06:08:29;4.50;;;2.60;;
9838;SDS011;4958;48.150;11.506;2024-02-04T06:10:55;4.13;;;2.33;;
9838;SDS011;4958;48.150;11.506;2024-02-04T06:13:22;3.07;;;2.40;;
9838;SDS011;4958;48.150;11.506;2024-02-04T06:15:49;4.17;;;2.33;;
9838;SDS011;4958;48.150;11.506;2024-02-04T06:18:15;2.70;;;2.40;;
9838;SDS011;4958;48.150;11.506;2024-02-04T06:20:42;2.77;;;2.47;;
9838;SDS011;4958;48.150;11.506;2024-02-04T06:23:09;5.70;;;2.60;;
9838;SDS011;4958;48.150;11.506;2024-02-04T06:25:36;2.23;;;1.97;;
9838;SDS011;4958;48.150;11.506;2024-02-04T06:28:03;2.60;;;2.40;;
9838;SDS011;4958;48.150;11.506;2024-02-04T06:30:33;4.53;;;2.70;;
9838;SDS011;4958;48.150;11.506;2024-02-04T06:32:59;3.70;;;2.60;;
9838;SDS011;4958;48.150;11.506;2024-02-04T06:35:26;3.93;;;2.43;;
9838;SDS011;4958;48.150;11.506;2024-02-04T06:37:52;4.90;;;2.30;;
9838;SDS011;4958;48.150;11.506;2024-02-04T06:40:19;3.90;;;2.27;;
9838;SDS011;4958;48.150;11.506;2024-02-04T06:42:46;3.90;;;2.57;;
9838;SDS011;4958;48.150;11.506;2024-02-04T06:45:13;3.37;;;2.23;;
9838;SDS011;4958;48.150;11.506;2024-02-04T06:47:42;2.97;;;2.50;;
9838;SDS011;4958;48.150;11.506;2024-02-04T06:50:09;6.30;;;2.40;;
9838;SDS011;4958;48.150;11.506;2024-02-04T06:52:38;3.10;;;2.80;;
9838;SDS011;4958;48.150;11.506;2024-02-04T06:55:05;4.40;;;3.20;;
9838;SDS011;4958;48.150;11.506;2024-02-04T06:57:32;5.30;;;3.10;;
9838;SDS011;4958;48.150;11.506;2024-02-04T07:00:00;4.83;;;3.00;;
9838;SDS011;4958;48.150;11.506;2024-02-04T07:02:26;5.27;;;2.87;;
9838;SDS011;4958;48.150;11.506;2024-02-04T07:04:53;4.00;;;2.80;;
9838;SDS011;4958;48.150;11.506;2024-02-04T07:07:19;3.23;;;2.93;;
9838;SDS011;4958;48.150;11.506;2024-02-04T07:09:46;4.80;;;2.83;;
9838;SDS011;4958;48.150;11.506;2024-02-04T07:12:12;3.30;;;2.93;;
9838;SDS011;4958;48.150;11.506;2024-02-04T07:14:39;4.03;;;3.30;;
9838;SDS011;4958;48.150;11.506;2024-02-04T07:17:06;4.43;;;3.00;;
9838;SDS011;4958;48.150;11.506;2024-02-04T07:19:33;6.30;;;3.40;;
9838;SDS011;4958;48.150;11.506;2024-02-04T07:22:00;4.47;;;3.57;;
9838;SDS011;4958;48.150;11.506;2024-02-04T07:24:27;5.40;;;3.63;;
9838;SDS011;4958;48.150;11.506;2024-02-04T07:26:56;6.10;;;4.13;;
9838;SDS011;4958;48.150;11.506;2024-02-04T07:29:22;4.20;;;3.80;;
9838;SDS011;4958;48.150;11.506;2024-02-04T07:31:49;4.63;;;3.63;;
9838;SDS011;4958;48.150;11.506;2024-02-04T07:34:17;4.47;;;4.00;;
9838;SDS011;4958;48.150;11.506;2024-02-04T07:36:43;4.60;;;4.00;;
9838;SDS011;4958;48.150;11.506;2024-02-04T07:39:14;6.43;;;4.10;;
9838;SDS011;4958;48.150;11.506;2024-02-04T07:41:40;5.63;;;4.00;;
9838;SDS011;4958;48.150;11.506;2024-02-04T07:44:07;6.43;;;5.10;;
9838;SDS011;4958;48.150;11.506;2024-02-04T07:46:33;5.50;;;3.90;;
9838;SDS011;4958;48.150;11.506;2024-02-04T07:49:00;6.53;;;3.97;;
9838;SDS011;4958;48.150;11.506;2024-02-04T07:51:28;7.07;;;3.90;;
9838;SDS011;4958;48.150;11.506;2024-02-04T07:53:55;5.83;;;4.10;;
9838;SDS011;4958;48.150;11.506;2024-02-04T07:56:21;6.87;;;3.90;;
9838;SDS011;4958;48.150;11.506;2024-02-04T07:58:47;6.93;;;3.80;;
9838;SDS011;4958;48.150;11.506;2024-02-04T08:01:14;5.30;;;3.90;;
9838;SDS011;4958;48.150;11.506;2024-02-04T08:03:40;8.50;;;3.97;;
9838;SDS011;4958;48.150;11.506;2024-02-04T08:06:07;8.00;;;4.37;;
9838;SDS011;4958;48.150;11.506;2024-02-04T08:08:34;6.20;;;3.60;;
9838;SDS011;4958;48.150;11.506;2024-02-04T08:11:01;5.70;;;3.40;;
9838;SDS011;4958;48.150;11.506;2024-02-04T08:13:27;4.33;;;3.23;;
9838;SDS011;4958;48.150;11.506;2024-02-04T08:15:53;5.87;;;3.20;;
9838;SDS011;4958;48.150;11.506;2024-02-04T08:18:20;6.17;;;3.13;;
9838;SDS011;4958;48.150;11.506;2024-02-04T08:20:46;6.23;;;2.77;;
9838;SDS011;4958;48.150;11.506;2024-02-04T08:23:13;4.00;;;3.00;;
9838;SDS011;4958;48.150;11.506;2024-02-04T08:25:43;3.97;;;3.00;;
9838;SDS011;4958;48.150;11.506;2024-02-04T08:28:09;4.37;;;2.73;;
9838;SDS011;4958;48.150;11.506;2024-02-04T08:30:38;4.67;;;2.80;;
9838;SDS011;4958;48.150;11.506;2024-02-04T08:33:04;4.50;;;3.00;;
9838;SDS011;4958;48.150;11.506;2024-02-04T08:35:31;3.10;;;2.77;;
9838;SDS011;4958;48.150;11.506;2024-02-04T08:38:01;4.90;;;2.97;;
9838;SDS011;4958;48.150;11.506;2024-02-04T08:40:29;5.93;;;2.90;;
9838;SDS011;4958;48.150;11.506;2024-02-04T08:42:57;4.43;;;2.70;;
9838;SDS011;4958;48.150;11.506;2024-02-04T08:45:24;3.17;;;2.37;;
9838;SDS011;4958;48.150;11.506;2024-02-04T08:47:50;3.73;;;2.70;;
9838;SDS011;4958;48.150;11.506;2024-02-04T08:50:17;6.30;;;2.67;;
9838;SDS011;4958;48.150;11.506;2024-02-04T08:52:44;4.43;;;2.70;;
9838;SDS011;4958;48.150;11.506;2024-02-04T08:55:10;5.70;;;2.73;;
9838;SDS011;4958;48.150;11.506;2024-02-04T08:57:37;3.53;;;2.73;;
9838;SDS011;4958;48.150;11.506;2024-02-04T09:00:06;3.17;;;2.33;;
9838;SDS011;4958;48.150;11.506;2024-02-04T09:02:36;4.97;;;3.10;;
9838;SDS011;4958;48.150;11.506;2024-02-04T09:05:03;4.47;;;2.80;;
9838;SDS011;4958;48.150;11.506;2024-02-04T09:07:32;4.20;;;2.77;;
9838;SDS011;4958;48.150;11.506;2024-02-04T09:09:59;3.27;;;2.53;;
9838;SDS011;4958;48.150;11.506;2024-02-04T09:12:25;4.07;;;2.93;;
9838;SDS011;4958;48.150;11.506;2024-02-04T09:14:51;5.10;;;2.93;;
9838;SDS011;4958;48.150;11.506;2024-02-04T09:17:25;6.30;;;3.50;;
9838;SDS011;4958;48.150;11.506;2024-02-04T09:19:52;4.37;;;3.13;;
9838;SDS011;4958;48.150;11.506;2024-02-04T09:22:19;5.90;;;3.10;;
9838;SDS011;4958;48.150;11.506;2024-02-04T09:24:45;3.40;;;2.80;;
9838;SDS011;4958;48.150;11.506;2024-02-04T09:27:11;5.57;;;3.00;;
9838;SDS011;4958;48.150;11.506;2024-02-04T09:29:38;4.53;;;3.00;;
9838;SDS011;4958;48.150;11.506;2024-02-04T09:32:05;2.90;;;2.60;;
9838;SDS011;4958;48.150;11.506;2024-02-04T09:34:33;5.10;;;3.13;;
9838;SDS011;4958;48.150;11.506;2024-02-04T09:36:59;5.43;;;3.20;;
9838;SDS011;4958;48.150;11.506;2024-02-04T09:39:26;6.10;;;3.10;;
9838;SDS011;4958;48.150;11.506;2024-02-04T09:41:54;6.27;;;2.97;;
9838;SDS011;4958;48.150;11.506;2024-02-04T09:44:33;3.77;;;3.33;;
9838;SDS011;4958;48.150;11.506;2024-02-04T09:53:07;5.10;;;3.17;;
9838;SDS011;4958;48.150;11.506;2024-02-04T09:55:43;4.37;;;3.20;;
9838;SDS011;4958;48.150;11.506;2024-02-04T09:58:10;4.53;;;3.70;;
9838;SDS011;4958;48.150;11.506;2024-02-04T10:00:37;6.00;;;3.60;;
9838;SDS011;4958;48.150;11.506;2024-02-04T10:10:12;5.33;;;3.47;;
9838;SDS011;4958;48.150;11.506;2024-02-04T10:12:46;9.10;;;3.70;;
9838;SDS011;4958;48.150;11.506;2024-02-04T10:15:45;4.27;;;3.30;;
9838;SDS011;4958;48.150;11.506;2024-02-04T10:22:03;5.97;;;3.70;;
9838;SDS011;4958;48.150;11.506;2024-02-04T10:25:29;6.47;;;3.50;;
9838;SDS011;4958;48.150;11.506;2024-02-04T10:31:26;4.33;;;3.40;;
9838;SDS011;4958;48.150;11.506;2024-02-04T10:33:54;4.20;;;3.27;;
9838;SDS011;4958;48.150;11.506;2024-02-04T10:36:20;4.10;;;3.60;;
9838;SDS011;4958;48.150;11.506;2024-02-04T10:38:47;4.10;;;3.70;;
9838;SDS011;4958;48.150;11.506;2024-02-04T10:41:15;4.40;;;3.67;;
9838;SDS011;4958;48.150;11.506;2024-02-04T10:43:43;6.63;;;3.30;;
9838;SDS011;4958;48.150;11.506;2024-02-04T10:46:12;4.20;;;3.50;;
9838;SDS011;4958;48.150;11.506;2024-02-04T10:48:42;5.43;;;3.57;;
9838;SDS011;4958;48.150;11.506;2024-02-04T10:51:11;5.97;;;3.37;;
9838;SDS011;4958;48.150;11.506;2024-02-04T10:53:41;4.93;;;3.23;;
9838;SDS011;4958;48.150;11.506;2024-02-04T10:56:13;3.70;;;3.17;;
9838;SDS011;4958;48.150;11.506;2024-02-04T10:58:45;4.97;;;2.93;;
9838;SDS011;4958;48.150;11.506;2024-02-04T11:01:13;8.97;;;3.10;;
9838;SDS011;4958;48.150;11.506;2024-02-04T11:03:41;3.23;;;2.77;;
9838;SDS011;4958;48.150;11.506;2024-02-04T11:06:08;4.80;;;2.90;;
9838;SDS011;4958;48.150;11.506;2024-02-04T11:08:36;4.50;;;2.40;;
9838;SDS011;4958;48.150;11.506;2024-02-04T11:11:04;3.80;;;2.50;;
9838;SDS011;4958;48.150;11.506;2024-02-04T11:13:32;3.50;;;2.30;;
9838;SDS011;4958;48.150;11.506;2024-02-04T11:16:00;3.13;;;1.90;;
9838;SDS011;4958;48.150;11.506;2024-02-04T11:18:37;3.47;;;1.90;;
9838;SDS011;4958;48.150;11.506;2024-02-04T11:24:31;2.43;;;1.70;;
9838;SDS011;4958;48.150;11.506;2024-02-04T11:27:10;3.23;;;1.63;;
9838;SDS011;4958;48.150;11.506;2024-02-04T11:36:23;2.70;;;1.57;;
9838;SDS011;4958;48.150;11.506;2024-02-04T11:38:57;2.67;;;1.70;;
9838;SDS011;4958;48.150;11.506;2024-02-04T11:41:24;2.40;;;1.67;;
9838;SDS011;4958;48.150;11.506;2024-02-04T11:43:52;2.63;;;1.80;;
9838;SDS011;4958;48.150;11.506;2024-02-04T11:46:20;2.07;;;1.50;;
9838;SDS011;4958;48.150;11.506;2024-02-04T11:48:51;5.93;;;1.77;;
9838;SDS011;4958;48.150;11.506;2024-02-04T11:51:22;6.00;;;1.60;;
9838;SDS011;4958;48.150;11.506;2024-02-04T11:53:49;3.47;;;1.70;;
9838;SDS011;4958;48.150;11.506;2024-02-04T11:56:18;2.23;;;1.50;;
9838;SDS011;4958;48.150;11.506;2024-02-04T11:58:45;4.30;;;1.43;;
9838;SDS011;4958;48.150;11.506;2024-02-04T12:01:12;3.03;;;1.70;;
9838;SDS011;4958;48.150;11.506;2024-02-04T12:03:38;4.47;;;1.50;;
9838;SDS011;4958;48.150;11.506;2024-02-04T12:06:05;1.33;;;1.23;;
9838;SDS011;4958;48.150;11.506;2024-02-04T12:08:34;1.87;;;1.50;;
9838;SDS011;4958;48.150;11.506;2024-02-04T12:11:01;1.73;;;1.60;;
9838;SDS011;4958;48.150;11.506;2024-02-04T12:13:28;2.90;;;1.33;;
9838;SDS011;4958;48.150;11.506;2024-02-04T12:15:54;4.07;;;1.40;;
9838;SDS011;4958;48.150;11.506;2024-02-04T12:18:21;2.33;;;1.50;;
9838;SDS011;4958;48.150;11.506;2024-02-04T12:20:47;2.23;;;1.40;;
9838;SDS011;4958;48.150;11.506;2024-02-04T12:23:15;2.40;;;1.37;;
9838;SDS011;4958;48.150;11.506;2024-02-04T12:25:48;2.00;;;1.50;;
9838;SDS011;4958;48.150;11.506;2024-02-04T12:28:20;1.60;;;1.37;;
9838;SDS011;4958;48.150;11.506;2024-02-04T12:30:52;1.60;;;1.33;;
9838;SDS011;4958;48.150;11.506;2024-02-04T12:33:19;3.10;;;1.43;;
9838;SDS011;4958;48.150;11.506;2024-02-04T12:35:48;3.10;;;1.60;;
9838;SDS011;4958;48.150;11.506;2024-02-04T12:38:21;2.57;;;1.20;;
9838;SDS011;4958;48.150;11.506;2024-02-04T12:40:49;2.13;;;1.40;;
9838;SDS011;4958;48.150;11.506;2024-02-04T12:43:33;2.87;;;1.43;;
9838;SDS011;4958;48.150;11.506;2024-02-04T12:46:06;2.57;;;1.40;;
9838;SDS011;4958;48.150;11.506;2024-02-04T12:48:33;1.43;;;1.10;;
9838;SDS011;4958;48.150;11.506;2024-02-04T12:51:00;1.77;;;1.20;;
9838;SDS011;4958;48.150;11.506;2024-02-04T12:53:28;2.07;;;1.37;;
9838;SDS011;4958;48.150;11.506;2024-02-04T12:55:58;3.50;;;1.60;;
9838;SDS011;4958;48.150;11.506;2024-02-04T12:58:25;3.03;;;1.40;;
9838;SDS011;4958;48.150;11.506;2024-02-04T13:00:58;2.50;;;1.40;;
9838;SDS011;4958;48.150;11.506;2024-02-04T13:03:26;2.43;;;1.30;;
9838;SDS011;4958;48.150;11.506;2024-02-04T13:05:56;2.63;;;1.60;;
9838;SDS011;4958;48.150;11.506;2024-02-04T13:08:23;3.57;;;1.73;;
9838;SDS011;4958;48.150;11.506;2024-02-04T13:10:53;2.07;;;1.57;;
9838;SDS011;4958;48.150;11.506;2024-02-04T13:13:21;2.70;;;1.50;;
9838;SDS011;4958;48.150;11.506;2024-02-04T13:15:51;2.50;;;1.50;;
9838;SDS011;4958;48.150;11.506;2024-02-04T13:18:18;3.00;;;1.50;;
9838;SDS011;4958;48.150;11.506;2024-02-04T13:20:44;1.63;;;1.43;;
9838;SDS011;4958;48.150;11.506;2024-02-04T13:23:11;2.77;;;1.47;;
9838;SDS011;4958;48.150;11.506;2024-02-04T13:25:37;1.93;;;1.33;;
9838;SDS011;4958;48.150;11.506;2024-02-04T13:28:04;2.20;;;1.30;;
9838;SDS011;4958;48.150;11.506;2024-02-04T13:30:32;3.30;;;1.40;;
9838;SDS011;4958;48.150;11.506;2024-02-04T13:32:58;4.27;;;1.70;;
9838;SDS011;4958;48.150;11.506;2024-02-04T13:35:26;3.83;;;1.67;;
9838;SDS011;4958;48.150;11.506;2024-02-04T13:37:53;2.40;;;1.40;;
9838;SDS011;4958;48.150;11.506;2024-02-04T13:40:20;2.13;;;1.53;;
9838;SDS011;4958;48.150;11.506;2024-02-04T13:42:50;4.87;;;1.70;;
9838;SDS011;4958;48.150;11.506;2024-02-04T13:45:17;2.90;;;1.97;;
9838;SDS011;4958;48.150;11.506;2024-02-04T13:47:45;2.80;;;1.40;;
9838;SDS011;4958;48.150;11.506;2024-02-04T13:50:11;1.50;;;1.30;;
9838;SDS011;4958;48.150;11.506;2024-02-04T13:52:38;2.10;;;1.50;;
9838;SDS011;4958;48.150;11.506;2024-02-04T13:55:05;2.60;;;1.80;;
9838;SDS011;4958;48.150;11.506;2024-02-04T13:57:33;3.20;;;1.57;;
9838;SDS011;4958;48.150;11.506;2024-02-04T13:59:59;2.33;;;1.70;;
9838;SDS011;4958;48.150;11.506;2024-02-04T14:02:26;5.47;;;1.73;;
9838;SDS011;4958;48.150;11.506;2024-02-04T14:04:56;3.50;;;1.97;;
9838;SDS011;4958;48.150;11.506;2024-02-04T14:07:22;5.53;;;2.07;;
9838;SDS011;4958;48.150;11.506;2024-02-04T14:09:49;2.37;;;1.70;;
9838;SDS011;4958;48.150;11.506;2024-02-04T14:12:16;4.27;;;1.73;;
9838;SDS011;4958;48.150;11.506;2024-02-04T14:14:43;2.07;;;1.40;;
9838;SDS011;4958;48.150;11.506;2024-02-04T14:17:09;2.13;;;1.40;;
9838;SDS011;4958;48.150;11.506;2024-02-04T14:19:36;3.40;;;1.67;;
9838;SDS011;4958;48.150;11.506;2024-02-04T14:22:04;4.57;;;2.03;;
9838;SDS011;4958;48.150;11.506;2024-02-04T14:24:30;5.57;;;1.90;;
9838;SDS011;4958;48.150;11.506;2024-02-04T14:26:58;5.97;;;1.50;;
9838;SDS011;4958;48.150;11.506;2024-02-04T14:29:25;2.27;;;1.50;;
9838;SDS011;4958;48.150;11.506;2024-02-04T14:31:52;3.53;;;1.53;;
9838;SDS011;4958;48.150;11.506;2024-02-04T14:34:18;2.93;;;1.63;;
9838;SDS011;4958;48.150;11.506;2024-02-04T14:36:45;2.63;;;1.50;;
9838;SDS011;4958;48.150;11.506;2024-02-04T14:39:13;3.93;;;1.63;;
9838;SDS011;4958;48.150;11.506;2024-02-04T14:41:40;3.40;;;1.57;;
9838;SDS011;4958;48.150;11.506;2024-02-04T14:44:17;2.53;;;1.77;;
9838;SDS011;4958;48.150;11.506;2024-02-04T14:50:29;5.33;;;1.70;;
9838;SDS011;4958;48.150;11.506;2024-02-04T14:53:11;4.23;;;1.90;;
9838;SDS011;4958;48.150;11.506;2024-02-04T14:55:48;4.43;;;1.70;;
9838;SDS011;4958;48.150;11.506;2024-02-04T14:58:41;4.67;;;1.97;;
9838;SDS011;4958;48.150;11.506;2024-02-04T15:08:08;5.73;;;1.90;;
9838;SDS011;4958;48.150;11.506;2024-02-04T15:14:29;1.90;;;1.40;;
9838;SDS011;4958;48.150;11.506;2024-02-04T15:16:56;2.40;;;1.30;;
9838;SDS011;4958;48.150;11.506;2024-02-04T15:23:16;2.30;;;1.73;;
9838;SDS011;4958;48.150;11.506;2024-02-04T15:25:48;4.40;;;2.73;;
9838;SDS011;4958;48.150;11.506;2024-02-04T15:28:21;4.90;;;2.00;;
9838;SDS011;4958;48.150;11.506;2024-02-04T15:30:51;2.50;;;1.50;;
9838;SDS011;4958;48.150;11.506;2024-02-04T15:33:18;2.33;;;1.50;;
9838;SDS011;4958;48.150;11.506;2024-02-04T15:35:45;4.40;;;1.50;;
9838;SDS011;4958;48.150;11.506;2024-02-04T15:38:12;1.63;;;1.30;;
9838;SDS011;4958;48.150;11.506;2024-02-04T15:40:38;2.83;;;1.43;;
9838;SDS011;4958;48.150;11.506;2024-02-04T15:43:05;3.53;;;1.67;;
9838;SDS011;4958;48.150;11.506;2024-02-04T15:45:36;3.87;;;1.43;;
9838;SDS011;4958;48.150;11.506;2024-02-04T15:48:05;2.30;;;1.30;;
9838;SDS011;4958;48.150;11.506;2024-02-04T15:50:37;3.00;;;1.40;;
9838;SDS011;4958;48.150;11.506;2024-02-04T15:53:05;3.10;;;1.30;;